createdAt,value
2019-03-12T00:01:21.147Z,4.40
2019-03-12T00:03:51.558Z,4.40
2019-03-12T00:06:21.869Z,4.40
2019-03-12T00:08:52.260Z,4.40
2019-03-12T00:11:22.615Z,4.40
2019-03-12T00:13:53.125Z,4.40
2019-03-12T00:16:23.430Z,4.30
2019-03-12T00:18:53.725Z,4.30
2019-03-12T00:21:24.125Z,4.20
2019-03-12T00:23:54.400Z,4.20
2019-03-12T00:26:24.693Z,4.20
2019-03-12T00:28:55.174Z,4.20
2019-03-12T00:31:26.541Z,4.20
2019-03-12T00:33:56.873Z,4.20
2019-03-12T00:36:27.190Z,4.20
2019-03-12T00:38:57.506Z,4.30
2019-03-12T00:41:27.734Z,4.30
2019-03-12T00:43:58.057Z,4.30
2019-03-12T00:46:28.649Z,4.20
2019-03-12T00:48:58.929Z,4.20
2019-03-12T00:51:29.268Z,4.20
2019-03-12T00:53:59.667Z,4.20
2019-03-12T00:56:30.016Z,4.20
2019-03-12T00:59:00.321Z,4.10
2019-03-12T01:01:30.642Z,4.10
2019-03-12T01:04:00.976Z,4.10
2019-03-12T01:06:31.294Z,4.10
2019-03-12T01:09:01.574Z,4.00
2019-03-12T01:11:33.503Z,3.90
2019-03-12T01:14:03.791Z,4.00
2019-03-12T01:16:35.169Z,4.00
2019-03-12T01:19:05.476Z,4.10
2019-03-12T01:21:35.834Z,4.10
2019-03-12T01:24:06.143Z,4.10
2019-03-12T01:26:36.451Z,4.20
2019-03-12T01:29:06.776Z,4.10
2019-03-12T01:31:37.135Z,4.10
2019-03-12T01:34:07.500Z,4.00
2019-03-12T01:36:37.826Z,4.00
2019-03-12T01:39:08.932Z,4.00
2019-03-12T01:41:39.325Z,4.00
2019-03-12T01:44:09.621Z,4.00
2019-03-12T01:46:39.917Z,3.90
2019-03-12T01:49:11.350Z,3.90
2019-03-12T01:51:41.660Z,3.90
2019-03-12T01:54:11.934Z,3.90
2019-03-12T01:56:42.344Z,3.80
2019-03-12T01:59:12.630Z,3.60
2019-03-12T02:01:42.979Z,3.50
2019-03-12T02:04:13.380Z,3.50
2019-03-12T02:06:43.704Z,3.60
2019-03-12T02:09:14.000Z,3.60
2019-03-12T02:11:44.464Z,3.60
2019-03-12T02:14:26.856Z,3.60
2019-03-12T02:16:57.367Z,3.50
2019-03-12T02:19:28.770Z,3.50
2019-03-12T02:21:59.056Z,3.40
2019-03-12T02:24:29.347Z,3.30
2019-03-12T02:26:59.625Z,3.20
2019-03-12T02:29:29.917Z,3.20
2019-03-12T02:32:00.295Z,3.20
2019-03-12T02:34:30.737Z,3.10
2019-03-12T02:37:01.041Z,3.00
2019-03-12T02:39:31.331Z,2.90
2019-03-12T02:42:01.618Z,2.80
2019-03-12T02:44:32.011Z,2.80
2019-03-12T02:47:02.287Z,2.70
2019-03-12T02:49:32.672Z,2.70
2019-03-12T02:52:04.546Z,2.60
2019-03-12T02:54:35.144Z,2.50
2019-03-12T02:57:05.554Z,2.50
2019-03-12T02:59:36.026Z,2.50
2019-03-12T03:02:06.314Z,2.40
2019-03-12T03:04:38.003Z,2.40
2019-03-12T03:07:42.634Z,2.30
2019-03-12T03:10:14.673Z,2.30
2019-03-12T03:12:44.962Z,2.30
2019-03-12T03:15:20.022Z,2.30
2019-03-12T03:17:50.387Z,2.20
2019-03-12T03:20:21.144Z,2.20
2019-03-12T03:22:51.587Z,2.10
2019-03-12T03:25:21.867Z,2.00
2019-03-12T03:27:52.187Z,2.10
2019-03-12T03:30:23.578Z,2.10
2019-03-12T03:32:54.262Z,2.10
2019-03-12T03:35:24.616Z,2.10
2019-03-12T03:37:54.922Z,2.00
2019-03-12T03:40:25.231Z,1.90
2019-03-12T03:42:55.611Z,2.00
2019-03-12T03:45:26.008Z,1.90
2019-03-12T03:47:56.279Z,1.90
2019-03-12T03:50:26.675Z,1.90
2019-03-12T03:52:56.996Z,1.90
2019-03-12T03:55:27.278Z,1.80
2019-03-12T03:57:57.584Z,1.80
2019-03-12T04:00:27.944Z,1.80
2019-03-12T04:02:58.295Z,1.80
2019-03-12T04:05:28.640Z,1.70
2019-03-12T04:07:59.000Z,1.70
2019-03-12T04:10:29.308Z,1.70
2019-03-12T04:12:59.684Z,1.60
2019-03-12T04:15:41.245Z,1.60
2019-03-12T04:18:11.657Z,1.70
2019-03-12T04:20:41.983Z,1.50
2019-03-12T04:23:15.865Z,1.40
2019-03-12T04:25:44.329Z,1.30
2019-03-12T04:28:14.648Z,1.40
2019-03-12T04:30:44.998Z,1.40
2019-03-12T04:33:51.960Z,1.30
2019-03-12T04:36:22.359Z,1.20
2019-03-12T04:38:52.700Z,1.20
2019-03-12T04:41:23.066Z,1.20
2019-03-12T04:43:53.411Z,1.20
2019-03-12T04:46:23.733Z,1.20
2019-03-12T04:48:54.080Z,1.30
2019-03-12T04:51:24.558Z,1.30
2019-03-12T04:53:54.892Z,1.30
2019-03-12T04:56:25.263Z,1.20
2019-03-12T04:58:55.840Z,1.40
2019-03-12T05:01:26.415Z,1.40
2019-03-12T05:03:56.790Z,1.50
2019-03-12T05:06:27.135Z,1.50
2019-03-12T05:08:57.551Z,1.50
2019-03-12T05:11:28.152Z,1.50
2019-03-12T05:14:36.126Z,1.50
2019-03-12T05:17:25.208Z,1.70
2019-03-12T05:19:55.537Z,1.70
2019-03-12T05:22:26.252Z,1.70
2019-03-12T05:24:56.565Z,1.80
2019-03-12T05:27:26.961Z,1.90
2019-03-12T05:29:57.520Z,1.90
2019-03-12T05:32:27.903Z,1.90
2019-03-12T05:34:58.223Z,2.00
2019-03-12T05:37:28.502Z,2.10
2019-03-12T05:39:58.836Z,2.10
2019-03-12T05:42:29.363Z,2.10
2019-03-12T05:44:59.702Z,2.10
2019-03-12T05:47:30.106Z,2.10
2019-03-12T05:50:00.868Z,2.10
2019-03-12T05:55:12.114Z,2.10
2019-03-12T05:57:42.741Z,2.10
2019-03-12T06:00:16.097Z,2.10
2019-03-12T06:02:46.736Z,2.20
2019-03-12T06:05:17.251Z,2.20
2019-03-12T06:07:47.782Z,2.30
2019-03-12T06:10:18.333Z,2.30
2019-03-12T06:12:48.978Z,2.40
2019-03-12T06:15:19.403Z,2.30
2019-03-12T06:17:49.744Z,2.40
2019-03-12T06:20:20.208Z,2.40
2019-03-12T06:22:50.637Z,2.40
2019-03-12T06:25:21.177Z,2.40
2019-03-12T06:27:51.805Z,2.40
2019-03-12T06:30:39.156Z,2.40
2019-03-12T06:33:15.443Z,2.40
2019-03-12T06:35:56.226Z,2.40
2019-03-12T06:38:45.573Z,2.40
2019-03-12T06:41:29.584Z,2.50
2019-03-12T06:44:34.451Z,2.60
2019-03-12T06:47:22.408Z,2.60
2019-03-12T06:50:03.252Z,2.70
2019-03-12T06:52:50.506Z,2.80
2019-03-12T06:55:55.641Z,2.90
2019-03-12T06:58:31.471Z,3.10
2019-03-12T07:01:19.251Z,3.40
2019-03-12T07:04:17.409Z,3.60
2019-03-12T07:07:17.023Z,3.70
2019-03-12T07:10:04.166Z,3.80
2019-03-12T07:12:56.958Z,3.90
2019-03-12T07:15:40.548Z,3.90
2019-03-12T07:18:33.588Z,4.00
2019-03-12T07:21:23.303Z,4.00
2019-03-12T07:24:20.208Z,4.10
2019-03-12T07:26:57.448Z,4.10
2019-03-12T07:29:46.875Z,4.10
2019-03-12T07:32:41.101Z,4.10
2019-03-12T07:35:22.636Z,4.20
2019-03-12T07:38:11.771Z,4.30
2019-03-12T07:40:56.344Z,4.50
2019-03-12T07:43:45.984Z,4.70
2019-03-12T07:46:54.051Z,4.90
2019-03-12T07:49:49.349Z,5.10
2019-03-12T07:52:38.811Z,5.40
2019-03-12T07:55:34.122Z,5.50
2019-03-12T07:58:36.000Z,5.70
2019-03-12T08:01:25.019Z,5.80
2019-03-12T08:04:08.396Z,6.00
2019-03-12T08:06:56.574Z,6.20
2019-03-12T08:09:55.931Z,6.30
2019-03-12T08:12:39.163Z,6.40
2019-03-12T08:15:38.838Z,6.50
2019-03-12T08:18:31.072Z,6.70
2019-03-12T08:21:22.504Z,6.70
2019-03-12T08:23:57.929Z,6.80
2019-03-12T08:26:50.231Z,6.90
2019-03-12T08:29:38.243Z,7.00
2019-03-12T08:32:45.736Z,7.20
2019-03-12T08:35:26.173Z,7.40
2019-03-12T08:38:11.222Z,7.40
2019-03-12T08:40:54.684Z,7.50
2019-03-12T08:43:50.035Z,7.30
2019-03-12T08:46:34.099Z,7.40
2019-03-12T08:49:30.430Z,7.40
2019-03-12T08:52:31.989Z,7.40
2019-03-12T08:55:40.018Z,7.50
2019-03-12T08:58:27.903Z,7.40
2019-03-12T09:01:23.128Z,7.30
2019-03-12T09:04:12.513Z,7.60
2019-03-12T09:07:04.990Z,7.60
2019-03-12T09:10:02.085Z,7.60
2019-03-12T09:12:55.214Z,7.70
2019-03-12T09:15:43.933Z,7.70
2019-03-12T09:18:48.749Z,7.90
2019-03-12T09:21:39.783Z,7.90
2019-03-12T09:24:27.982Z,7.90
2019-03-12T09:27:32.937Z,8.00
2019-03-12T09:30:34.563Z,8.10
2019-03-12T09:33:15.553Z,8.50
2019-03-12T09:36:00.643Z,8.60
2019-03-12T09:38:45.247Z,8.70
2019-03-12T09:41:33.225Z,8.50
2019-03-12T09:44:25.353Z,8.50
2019-03-12T09:47:02.451Z,8.50
2019-03-12T09:49:51.798Z,8.40
2019-03-12T09:52:41.423Z,8.40
2019-03-12T09:58:39.150Z,8.30
2019-03-12T10:01:46.752Z,8.20
2019-03-12T10:04:35.158Z,8.40
2019-03-12T10:07:30.002Z,8.10
2019-03-12T10:10:20.944Z,8.10
2019-03-12T10:13:16.453Z,8.10
2019-03-12T10:16:05.695Z,8.20
2019-03-12T10:18:54.394Z,8.30
2019-03-12T10:21:44.332Z,8.20
2019-03-12T10:24:44.177Z,8.20
2019-03-12T10:27:29.136Z,8.50
2019-03-12T10:30:10.415Z,8.80
2019-03-12T10:33:02.937Z,8.90
2019-03-12T10:35:41.655Z,9.00
2019-03-12T10:39:01.997Z,9.30
2019-03-12T10:41:46.435Z,9.40
2019-03-12T10:44:39.348Z,9.50
2019-03-12T10:47:16.454Z,9.50
2019-03-12T10:49:47.443Z,9.80
2019-03-12T10:52:17.943Z,10.00
2019-03-12T10:54:48.476Z,10.20
2019-03-12T10:57:21.462Z,10.20
2019-03-12T10:59:50.970Z,10.50
2019-03-12T11:02:21.712Z,10.30
2019-03-12T11:04:52.652Z,10.20
2019-03-12T11:07:23.296Z,10.10
2019-03-12T11:09:53.791Z,10.10
2019-03-12T11:12:29.738Z,10.10
2019-03-12T11:15:04.465Z,9.90
2019-03-12T11:17:48.403Z,9.90
2019-03-12T11:20:08.645Z,10.10
2019-03-12T11:22:39.380Z,10.20
2019-03-12T11:25:11.209Z,10.00
2019-03-12T11:27:41.759Z,10.00
2019-03-12T11:30:14.089Z,9.90
2019-03-12T11:32:44.518Z,10.00
2019-03-12T11:35:14.914Z,10.10
2019-03-12T11:37:45.373Z,10.10
2019-03-12T11:40:17.912Z,10.30
2019-03-12T11:42:48.624Z,10.50
2019-03-12T11:45:20.628Z,10.60
2019-03-12T11:47:51.505Z,10.20
2019-03-12T11:50:22.196Z,10.00
2019-03-12T11:52:56.773Z,9.90
2019-03-12T11:55:25.429Z,9.90
2019-03-12T11:57:56.119Z,10.00
2019-03-12T12:00:30.541Z,10.20
2019-03-12T12:03:01.403Z,10.30
2019-03-12T12:05:35.098Z,10.30
2019-03-12T12:08:05.597Z,10.40
2019-03-12T12:10:36.105Z,10.50
2019-03-12T12:13:06.966Z,10.20
2019-03-12T12:15:38.889Z,10.20
2019-03-12T12:18:09.574Z,10.20
2019-03-12T12:20:39.964Z,10.20
2019-03-12T12:23:10.556Z,10.10
2019-03-12T12:25:41.624Z,10.20
2019-03-12T12:28:12.522Z,10.40
2019-03-12T12:30:43.139Z,10.10
2019-03-12T12:33:13.600Z,10.00
2019-03-12T12:35:44.280Z,9.80
2019-03-12T12:38:15.804Z,10.00
2019-03-12T12:40:46.188Z,10.10
2019-03-12T12:43:16.707Z,10.10
2019-03-12T12:45:47.390Z,10.10
2019-03-12T12:48:18.093Z,10.30
2019-03-12T12:51:01.988Z,10.50
2019-03-12T12:53:20.638Z,10.80
2019-03-12T12:55:53.050Z,10.60
2019-03-12T12:58:23.464Z,10.30
2019-03-12T13:00:54.199Z,10.40
2019-03-12T13:03:25.234Z,10.30
2019-03-12T13:05:55.878Z,10.20
2019-03-12T13:08:27.370Z,10.10
2019-03-12T13:10:57.873Z,10.00
2019-03-12T13:13:28.243Z,9.90
2019-03-12T13:15:59.024Z,10.00
2019-03-12T13:18:29.583Z,10.10
2019-03-12T13:21:00.166Z,10.20
2019-03-12T13:23:30.420Z,10.30
2019-03-12T13:26:00.978Z,10.20
2019-03-12T13:28:31.529Z,10.10
2019-03-12T13:31:04.335Z,10.20
2019-03-12T13:33:34.938Z,10.00
2019-03-12T13:36:09.561Z,10.00
2019-03-12T13:38:45.441Z,10.20
2019-03-12T13:41:12.240Z,10.30
2019-03-12T13:43:43.085Z,10.30
2019-03-12T13:46:13.706Z,10.30
2019-03-12T13:48:44.100Z,10.40
2019-03-12T13:51:14.667Z,10.40
2019-03-12T13:53:45.796Z,10.40
2019-03-12T13:56:16.708Z,10.40
2019-03-12T13:58:47.138Z,10.60
2019-03-12T14:01:17.609Z,10.60
2019-03-12T14:03:48.157Z,10.70
2019-03-12T14:06:18.829Z,10.70
2019-03-12T14:08:49.494Z,10.80
2019-03-12T14:11:20.163Z,10.90
2019-03-12T14:13:50.739Z,10.90
2019-03-12T14:16:21.275Z,10.90
2019-03-12T14:19:14.555Z,10.70
2019-03-12T14:21:45.880Z,10.60
2019-03-12T14:24:16.863Z,10.70
2019-03-12T14:26:50.603Z,11.10
2019-03-12T14:29:21.235Z,11.40
2019-03-12T14:31:51.919Z,11.10
2019-03-12T14:34:22.434Z,11.00
2019-03-12T14:36:53.040Z,11.10
2019-03-12T14:39:23.495Z,11.20
2019-03-12T14:41:53.950Z,11.20
2019-03-12T14:44:24.341Z,11.10
2019-03-12T14:46:55.886Z,10.80
2019-03-12T14:49:27.716Z,10.90
2019-03-12T14:52:08.715Z,11.00
2019-03-12T14:54:39.224Z,11.00
2019-03-12T14:57:09.720Z,10.80
2019-03-12T14:59:40.120Z,11.00
2019-03-12T15:02:14.891Z,10.90
2019-03-12T15:04:46.449Z,10.70
2019-03-12T15:07:18.822Z,10.80
2019-03-12T15:09:49.905Z,10.60
2019-03-12T15:12:20.891Z,10.60
2019-03-12T15:14:51.711Z,10.50
2019-03-12T15:17:22.111Z,10.40
2019-03-12T15:19:53.899Z,10.40
2019-03-12T15:22:25.971Z,10.20
2019-03-12T15:24:56.576Z,10.10
2019-03-12T15:27:27.256Z,10.20
2019-03-12T15:30:00.960Z,10.20
2019-03-12T15:32:32.845Z,10.10
2019-03-12T15:35:03.712Z,10.00
2019-03-12T15:37:34.314Z,9.90
2019-03-12T15:40:05.418Z,9.90
2019-03-12T15:42:37.931Z,9.90
2019-03-12T15:45:20.383Z,9.70
2019-03-12T15:47:51.063Z,9.60
2019-03-12T15:50:22.001Z,9.60
2019-03-12T15:52:52.795Z,9.40
2019-03-12T15:55:23.618Z,9.40
2019-03-12T15:57:57.231Z,9.30
2019-03-12T16:00:27.717Z,9.30
2019-03-12T16:02:58.155Z,9.30
2019-03-12T16:05:28.668Z,9.20
2019-03-12T16:07:59.152Z,9.10
2019-03-12T16:10:29.962Z,9.00
2019-03-12T16:13:00.356Z,9.00
2019-03-12T16:15:32.122Z,9.00
2019-03-12T16:18:04.008Z,8.90
2019-03-12T16:20:35.661Z,8.80
2019-03-12T16:23:06.398Z,8.80
2019-03-12T16:25:37.065Z,8.80
2019-03-12T16:28:07.927Z,8.80
2019-03-12T16:30:38.661Z,8.70
2019-03-12T16:33:09.621Z,8.70
2019-03-12T16:35:45.137Z,8.60
2019-03-12T16:38:16.076Z,8.60
2019-03-12T16:40:46.646Z,8.60
2019-03-12T16:43:17.813Z,8.60
2019-03-12T16:45:48.535Z,8.60
2019-03-12T16:48:19.426Z,8.50
2019-03-12T16:50:51.967Z,8.50
2019-03-12T16:53:22.807Z,8.50
2019-03-12T16:55:53.650Z,8.40
2019-03-12T16:58:24.271Z,8.40
2019-03-12T17:00:55.701Z,8.40
2019-03-12T17:03:27.207Z,8.50
2019-03-12T17:06:00.699Z,8.40
2019-03-12T17:08:34.454Z,8.40
2019-03-12T17:11:05.025Z,8.30
2019-03-12T17:13:36.139Z,8.30
2019-03-12T17:16:08.785Z,8.20
2019-03-12T17:18:41.405Z,8.20
2019-03-12T17:21:12.576Z,8.20
2019-03-12T17:24:08.486Z,8.10
2019-03-12T17:26:55.357Z,8.10
2019-03-12T17:29:38.938Z,8.20
2019-03-12T17:32:14.162Z,8.20
2019-03-12T17:34:47.912Z,8.20
2019-03-12T17:37:30.243Z,8.20
2019-03-12T17:40:05.058Z,8.20
2019-03-12T17:42:37.073Z,8.20
2019-03-12T17:45:18.557Z,8.20
2019-03-12T17:48:02.509Z,8.20
2019-03-12T17:50:38.055Z,8.20
2019-03-12T17:53:09.550Z,8.30
2019-03-12T17:55:59.968Z,8.20
2019-03-12T17:58:37.661Z,8.20
2019-03-12T18:01:11.541Z,8.20
2019-03-12T18:03:45.351Z,8.20
2019-03-12T18:06:19.197Z,8.20
2019-03-12T18:08:54.157Z,8.20
2019-03-12T18:11:34.766Z,8.20
2019-03-12T18:14:06.362Z,8.30
2019-03-12T18:16:41.220Z,8.30
2019-03-12T18:19:10.408Z,8.30
2019-03-12T18:21:41.341Z,8.30
2019-03-12T18:24:11.804Z,8.30
2019-03-12T18:26:42.638Z,8.20
2019-03-12T18:29:31.742Z,8.20
2019-03-12T18:32:02.875Z,8.20
2019-03-12T18:34:33.450Z,8.10
2019-03-12T18:37:03.937Z,8.10
2019-03-12T18:39:35.665Z,8.10
2019-03-12T18:42:06.332Z,8.10
2019-03-12T18:44:37.234Z,8.00
2019-03-12T18:47:09.767Z,8.00
2019-03-12T18:49:40.821Z,8.00
2019-03-12T18:52:11.641Z,8.00
2019-03-12T18:54:42.628Z,8.10
2019-03-12T18:57:13.361Z,8.10
2019-03-12T18:59:44.301Z,8.10
2019-03-12T19:02:14.937Z,8.10
2019-03-12T19:04:46.102Z,8.10
2019-03-12T19:07:18.281Z,8.10
2019-03-12T19:09:49.140Z,8.20
2019-03-12T19:12:20.206Z,8.20
2019-03-12T19:14:53.162Z,8.20
2019-03-12T19:17:24.807Z,8.30
2019-03-12T19:19:55.542Z,8.30
2019-03-12T19:22:26.354Z,8.30
2019-03-12T19:24:57.872Z,8.30
2019-03-12T19:27:29.051Z,8.20
2019-03-12T19:29:59.919Z,8.20
2019-03-12T19:32:45.963Z,8.20
2019-03-12T19:35:16.733Z,8.20
2019-03-12T19:37:48.326Z,8.20
2019-03-12T19:40:20.314Z,8.20
2019-03-12T19:42:51.179Z,8.30
2019-03-12T19:45:22.573Z,8.30
2019-03-12T19:47:54.889Z,8.20
2019-03-12T19:50:26.024Z,8.20
2019-03-12T19:53:46.284Z,7.90
2019-03-12T19:56:17.454Z,8.30
2019-03-12T19:59:01.577Z,8.30
2019-03-12T20:01:33.449Z,8.40
2019-03-12T20:04:04.532Z,8.30
2019-03-12T20:06:35.676Z,8.40
2019-03-12T20:09:09.205Z,8.30
2019-03-12T20:12:16.890Z,8.40
2019-03-12T20:15:42.566Z,8.50
2019-03-12T20:18:59.276Z,8.50
2019-03-12T20:22:27.143Z,8.50
2019-03-12T20:25:38.578Z,8.60
2019-03-12T20:32:58.009Z,8.60
2019-03-12T20:36:08.538Z,8.60
2019-03-12T20:39:15.453Z,8.70
2019-03-12T20:42:42.761Z,8.70
2019-03-12T20:45:53.232Z,8.70
2019-03-12T20:49:11.384Z,8.60
2019-03-12T20:52:29.186Z,8.60
2019-03-12T20:55:42.719Z,8.40
2019-03-12T20:59:04.301Z,8.60
2019-03-12T21:02:14.762Z,8.50
2019-03-12T21:05:12.975Z,8.60
2019-03-12T21:08:16.998Z,8.50
2019-03-12T21:11:28.063Z,8.50
2019-03-12T21:14:38.661Z,8.50
2019-03-12T21:17:49.029Z,8.60
2019-03-12T21:20:55.602Z,8.70
2019-03-12T21:24:02.424Z,8.70
2019-03-12T21:27:03.262Z,8.80
2019-03-12T21:29:49.437Z,8.80
2019-03-12T21:32:20.677Z,8.90
2019-03-12T21:34:51.210Z,8.90
2019-03-12T21:37:22.851Z,8.80
2019-03-12T21:39:56.165Z,8.80
2019-03-12T21:42:25.959Z,8.70
2019-03-12T21:44:56.823Z,8.70
2019-03-12T21:47:27.278Z,8.60
2019-03-12T21:49:57.984Z,8.40
2019-03-12T21:52:28.408Z,8.30
2019-03-12T21:54:59.020Z,8.30
2019-03-12T21:57:29.652Z,8.30
2019-03-12T22:00:00.016Z,8.10
2019-03-12T22:02:32.357Z,7.90
2019-03-12T22:05:02.821Z,7.80
2019-03-12T22:07:33.376Z,7.90
2019-03-12T22:10:04.401Z,8.00
2019-03-12T22:12:36.062Z,8.00
2019-03-12T22:15:07.910Z,8.00
2019-03-12T22:17:38.910Z,8.00
2019-03-12T22:20:10.541Z,8.00
2019-03-12T22:22:51.397Z,8.10
2019-03-12T22:25:21.691Z,8.00
2019-03-12T22:27:52.201Z,8.00
2019-03-12T22:30:23.654Z,8.10
2019-03-12T22:32:54.422Z,8.10
2019-03-12T22:35:24.886Z,8.10
2019-03-12T22:37:55.346Z,8.10
2019-03-12T22:40:25.777Z,8.10
2019-03-12T22:42:56.350Z,8.10
2019-03-12T22:45:26.876Z,8.10
2019-03-12T22:47:57.465Z,7.80
2019-03-12T22:50:28.122Z,7.30
2019-03-12T22:52:58.637Z,6.70
2019-03-12T22:55:29.462Z,6.30
2019-03-12T22:57:59.879Z,6.10
2019-03-12T23:00:49.157Z,5.90
2019-03-12T23:03:38.283Z,5.80
2019-03-12T23:06:28.753Z,5.60
2019-03-12T23:09:16.628Z,5.40
2019-03-12T23:11:49.200Z,5.20
2019-03-12T23:14:20.370Z,4.90
2019-03-12T23:16:50.921Z,4.90
2019-03-12T23:19:22.410Z,4.80
2019-03-12T23:21:59.502Z,4.80
2019-03-12T23:24:31.329Z,4.70
2019-03-12T23:27:01.702Z,4.70
2019-03-12T23:29:32.362Z,4.70
2019-03-12T23:32:05.560Z,4.70
2019-03-12T23:34:36.142Z,4.60
2019-03-12T23:37:06.452Z,4.70
2019-03-12T23:39:37.032Z,4.70
2019-03-12T23:42:08.141Z,4.70
2019-03-12T23:44:38.603Z,4.70
2019-03-12T23:47:08.986Z,4.70
2019-03-12T23:49:39.610Z,4.80
2019-03-12T23:52:10.701Z,4.70
2019-03-12T23:54:43.713Z,4.70
2019-03-12T23:57:16.642Z,4.70
2019-03-12T23:59:48.661Z,4.70
